sensor_id;sensor_type;location;lat;lon;timestamp;pressure;altitude;pressure_sealevel;temperature;humidity
3748;BME280;1889;50.058;8.688;2023-12-28T00:00:24;100172.25;;;9.96;64.72
3748;BME280;1889;50.058;8.688;2023-12-28T00:02:54;100157.98;;;9.49;65.86
3748;BME280;1889;50.058;8.688;2023-12-28T00:05:23;100156.50;;;9.65;65.32
3748;BME280;1889;50.058;8.688;2023-12-28T00:07:52;100157.84;;;9.26;67.05
3748;BME280;1889;50.058;8.688;2023-12-28T00:10:27;100162.36;;;9.16;67.77
3748;BME280;1889;50.058;8.688;2023-12-28T00:12:56;100165.25;;;8.92;68.70
3748;BME280;1889;50.058;8.688;2023-12-28T00:15:28;100164.05;;;9.20;67.96
3748;BME280;1889;50.058;8.688;2023-12-28T00:17:57;100171.22;;;9.06;68.17
3748;BME280;1889;50.058;8.688;2023-12-28T00:20:27;100177.16;;;9.22;67.79
3748;BME280;1889;50.058;8.688;2023-12-28T00:22:56;100169.80;;;9.15;67.73
3748;BME280;1889;50.058;8.688;2023-12-28T00:25:26;100160.78;;;9.37;67.50
3748;BME280;1889;50.058;8.688;2023-12-28T00:27:55;100153.33;;;9.38;67.36
3748;BME280;1889;50.058;8.688;2023-12-28T00:30:25;100152.15;;;9.26;66.95
3748;BME280;1889;50.058;8.688;2023-12-28T00:32:54;100154.08;;;9.12;68.41
3748;BME280;1889;50.058;8.688;2023-12-28T00:35:23;100141.19;;;9.28;68.04
3748;BME280;1889;50.058;8.688;2023-12-28T00:37:53;100153.42;;;9.31;67.85
3748;BME280;1889;50.058;8.688;2023-12-28T00:40:22;100162.46;;;9.41;67.19
3748;BME280;1889;50.058;8.688;2023-12-28T00:42:51;100154.78;;;9.61;66.39
3748;BME280;1889;50.058;8.688;2023-12-28T00:45:20;100150.62;;;9.44;66.77
3748;BME280;1889;50.058;8.688;2023-12-28T00:47:50;100153.47;;;9.61;66.62
3748;BME280;1889;50.058;8.688;2023-12-28T00:50:20;100143.59;;;9.78;66.27
3748;BME280;1889;50.058;8.688;2023-12-28T00:52:49;100154.57;;;9.43;64.75
3748;BME280;1889;50.058;8.688;2023-12-28T00:55:18;100148.55;;;9.68;65.22
3748;BME280;1889;50.058;8.688;2023-12-28T00:57:48;100146.66;;;9.79;65.14
3748;BME280;1889;50.058;8.688;2023-12-28T01:00:17;100146.97;;;9.87;64.70
3748;BME280;1889;50.058;8.688;2023-12-28T01:02:47;100147.31;;;9.63;63.14
3748;BME280;1889;50.058;8.688;2023-12-28T01:05:17;100149.86;;;9.68;63.53
3748;BME280;1889;50.058;8.688;2023-12-28T01:07:48;100145.45;;;9.71;63.75
3748;BME280;1889;50.058;8.688;2023-12-28T01:10:17;100134.08;;;9.38;63.27
3748;BME280;1889;50.058;8.688;2023-12-28T01:12:47;100138.13;;;9.62;63.38
3748;BME280;1889;50.058;8.688;2023-12-28T01:15:16;100135.61;;;9.54;63.12
3748;BME280;1889;50.058;8.688;2023-12-28T01:17:46;100133.61;;;9.73;63.22
3748;BME280;1889;50.058;8.688;2023-12-28T01:20:15;100133.61;;;9.73;62.02
3748;BME280;1889;50.058;8.688;2023-12-28T01:22:44;100134.94;;;10.00;62.15
3748;BME280;1889;50.058;8.688;2023-12-28T01:25:14;100140.97;;;10.06;60.08
3748;BME280;1889;50.058;8.688;2023-12-28T01:27:43;100155.23;;;9.58;60.46
3748;BME280;1889;50.058;8.688;2023-12-28T01:30:12;100168.17;;;9.74;60.56
3748;BME280;1889;50.058;8.688;2023-12-28T01:32:42;100166.95;;;9.98;60.29
3748;BME280;1889;50.058;8.688;2023-12-28T01:35:11;100176.44;;;9.79;59.22
3748;BME280;1889;50.058;8.688;2023-12-28T01:37:40;100183.23;;;9.94;59.45
3748;BME280;1889;50.058;8.688;2023-12-28T01:40:10;100186.38;;;9.89;59.17
3748;BME280;1889;50.058;8.688;2023-12-28T01:42:39;100174.77;;;10.04;58.89
3748;BME280;1889;50.058;8.688;2023-12-28T01:45:08;100190.80;;;10.18;57.91
3748;BME280;1889;50.058;8.688;2023-12-28T01:47:38;100191.34;;;10.39;57.68
3748;BME280;1889;50.058;8.688;2023-12-28T01:50:08;100190.69;;;10.53;56.83
3748;BME280;1889;50.058;8.688;2023-12-28T01:52:38;100184.77;;;10.65;57.08
3748;BME280;1889;50.058;8.688;2023-12-28T01:55:08;100200.13;;;10.64;56.52
3748;BME280;1889;50.058;8.688;2023-12-28T01:57:37;100211.27;;;10.80;56.08
3748;BME280;1889;50.058;8.688;2023-12-28T02:00:07;100211.48;;;10.93;55.59
3748;BME280;1889;50.058;8.688;2023-12-28T02:02:37;100209.58;;;10.78;55.30
3748;BME280;1889;50.058;8.688;2023-12-28T02:05:07;100217.57;;;10.95;55.32
3748;BME280;1889;50.058;8.688;2023-12-28T02:07:36;100224.00;;;10.79;54.30
3748;BME280;1889;50.058;8.688;2023-12-28T02:10:06;100220.45;;;10.82;54.33
3748;BME280;1889;50.058;8.688;2023-12-28T02:12:36;100215.44;;;10.93;55.38
3748;BME280;1889;50.058;8.688;2023-12-28T02:15:05;100221.78;;;11.05;53.83
3748;BME280;1889;50.058;8.688;2023-12-28T02:17:43;100228.04;;;11.24;54.27
3748;BME280;1889;50.058;8.688;2023-12-28T02:20:13;100231.95;;;11.27;53.80
3748;BME280;1889;50.058;8.688;2023-12-28T02:22:44;100229.78;;;11.25;53.58
3748;BME280;1889;50.058;8.688;2023-12-28T02:25:14;100237.32;;;10.95;53.64
3748;BME280;1889;50.058;8.688;2023-12-28T02:27:45;100243.30;;;11.05;53.87
3748;BME280;1889;50.058;8.688;2023-12-28T02:30:21;100244.59;;;11.30;53.51
3748;BME280;1889;50.058;8.688;2023-12-28T02:33:23;100243.56;;;11.15;53.02
3748;BME280;1889;50.058;8.688;2023-12-28T02:35:55;100249.12;;;11.24;52.80
3748;BME280;1889;50.058;8.688;2023-12-28T02:38:19;100240.17;;;11.32;53.18
3748;BME280;1889;50.058;8.688;2023-12-28T02:40:50;100232.73;;;11.53;53.05
3748;BME280;1889;50.058;8.688;2023-12-28T02:43:19;100241.64;;;11.47;53.18
3748;BME280;1889;50.058;8.688;2023-12-28T02:45:49;100247.50;;;11.61;53.17
3748;BME280;1889;50.058;8.688;2023-12-28T02:48:18;100249.42;;;11.53;53.14
3748;BME280;1889;50.058;8.688;2023-12-28T02:50:47;100249.34;;;11.58;52.63
3748;BME280;1889;50.058;8.688;2023-12-28T02:53:16;100253.50;;;11.47;52.56
3748;BME280;1889;50.058;8.688;2023-12-28T02:55:46;100260.10;;;11.68;53.12
3748;BME280;1889;50.058;8.688;2023-12-28T02:58:15;100253.64;;;11.62;52.69
3748;BME280;1889;50.058;8.688;2023-12-28T03:00:44;100251.27;;;11.50;52.88
3748;BME280;1889;50.058;8.688;2023-12-28T03:03:14;100261.91;;;11.43;52.53
3748;BME280;1889;50.058;8.688;2023-12-28T03:05:43;100256.41;;;11.33;53.06
3748;BME280;1889;50.058;8.688;2023-12-28T03:08:12;100252.95;;;11.30;52.92
3748;BME280;1889;50.058;8.688;2023-12-28T03:10:42;100261.41;;;11.47;53.21
3748;BME280;1889;50.058;8.688;2023-12-28T03:13:11;100264.02;;;11.48;53.40
3748;BME280;1889;50.058;8.688;2023-12-28T03:15:40;100263.73;;;11.62;53.16
3748;BME280;1889;50.058;8.688;2023-12-28T03:18:29;100262.88;;;11.39;52.89
3748;BME280;1889;50.058;8.688;2023-12-28T03:20:59;100252.86;;;11.58;53.17
3748;BME280;1889;50.058;8.688;2023-12-28T03:23:29;100230.50;;;11.77;52.94
3748;BME280;1889;50.058;8.688;2023-12-28T03:26:00;100228.50;;;11.90;53.15
3748;BME280;1889;50.058;8.688;2023-12-28T03:28:29;100235.59;;;11.87;53.09
3748;BME280;1889;50.058;8.688;2023-12-28T03:31:01;100246.91;;;11.47;54.10
3748;BME280;1889;50.058;8.688;2023-12-28T03:33:29;100253.86;;;11.73;54.05
3748;BME280;1889;50.058;8.688;2023-12-28T03:35:59;100239.47;;;11.91;54.00
3748;BME280;1889;50.058;8.688;2023-12-28T03:38:28;100235.95;;;11.91;54.10
3748;BME280;1889;50.058;8.688;2023-12-28T03:40:57;100247.72;;;11.95;54.22
3748;BME280;1889;50.058;8.688;2023-12-28T03:43:27;100250.94;;;11.66;55.15
3748;BME280;1889;50.058;8.688;2023-12-28T03:45:56;100254.20;;;11.57;55.70
3748;BME280;1889;50.058;8.688;2023-12-28T03:48:25;100252.56;;;11.72;55.67
3748;BME280;1889;50.058;8.688;2023-12-28T03:50:55;100243.34;;;11.72;55.89
3748;BME280;1889;50.058;8.688;2023-12-28T03:53:24;100258.29;;;11.71;56.30
3748;BME280;1889;50.058;8.688;2023-12-28T03:55:53;100262.82;;;11.65;56.86
3748;BME280;1889;50.058;8.688;2023-12-28T03:58:23;100258.59;;;11.80;56.72
3748;BME280;1889;50.058;8.688;2023-12-28T04:00:52;100270.17;;;11.70;57.57
3748;BME280;1889;50.058;8.688;2023-12-28T04:03:22;100276.48;;;11.85;57.33
3748;BME280;1889;50.058;8.688;2023-12-28T04:05:51;100262.75;;;11.92;57.35
3748;BME280;1889;50.058;8.688;2023-12-28T04:08:20;100266.02;;;11.82;58.00
3748;BME280;1889;50.058;8.688;2023-12-28T04:10:50;100272.82;;;11.92;58.03
3748;BME280;1889;50.058;8.688;2023-12-28T04:13:19;100270.79;;;11.84;58.66
3748;BME280;1889;50.058;8.688;2023-12-28T04:15:48;100263.75;;;11.84;59.00
3748;BME280;1889;50.058;8.688;2023-12-28T04:18:18;100250.66;;;12.01;58.88
3748;BME280;1889;50.058;8.688;2023-12-28T04:20:47;100262.08;;;11.58;61.37
3748;BME280;1889;50.058;8.688;2023-12-28T04:23:16;100248.48;;;11.57;62.04
3748;BME280;1889;50.058;8.688;2023-12-28T04:25:46;100252.88;;;11.57;62.58
3748;BME280;1889;50.058;8.688;2023-12-28T04:28:15;100251.95;;;11.59;62.86
3748;BME280;1889;50.058;8.688;2023-12-28T04:30:45;100250.83;;;11.71;62.43
3748;BME280;1889;50.058;8.688;2023-12-28T04:33:16;100239.49;;;11.90;62.14
3748;BME280;1889;50.058;8.688;2023-12-28T04:35:47;100246.53;;;11.89;62.60
3748;BME280;1889;50.058;8.688;2023-12-28T04:38:16;100249.09;;;11.92;62.80
3748;BME280;1889;50.058;8.688;2023-12-28T04:40:46;100249.88;;;11.97;63.20
3748;BME280;1889;50.058;8.688;2023-12-28T04:43:15;100243.16;;;11.82;64.24
3748;BME280;1889;50.058;8.688;2023-12-28T04:45:44;100240.89;;;11.85;64.62
3748;BME280;1889;50.058;8.688;2023-12-28T04:48:14;100232.64;;;12.00;64.15
3748;BME280;1889;50.058;8.688;2023-12-28T04:50:43;100234.09;;;11.75;66.11
3748;BME280;1889;50.058;8.688;2023-12-28T04:53:12;100233.87;;;11.62;67.44
3748;BME280;1889;50.058;8.688;2023-12-28T04:55:42;100249.80;;;11.79;66.95
3748;BME280;1889;50.058;8.688;2023-12-28T04:58:11;100255.53;;;11.79;67.12
3748;BME280;1889;50.058;8.688;2023-12-28T05:00:40;100253.46;;;11.71;68.17
3748;BME280;1889;50.058;8.688;2023-12-28T05:03:10;100253.77;;;11.79;67.71
3748;BME280;1889;50.058;8.688;2023-12-28T05:05:39;100253.16;;;11.88;67.68
3748;BME280;1889;50.058;8.688;2023-12-28T05:08:08;100254.61;;;11.81;68.23
3748;BME280;1889;50.058;8.688;2023-12-28T05:10:38;100270.26;;;11.67;69.33
3748;BME280;1889;50.058;8.688;2023-12-28T05:13:07;100278.19;;;11.65;69.93
3748;BME280;1889;50.058;8.688;2023-12-28T05:15:36;100282.27;;;11.59;70.39
3748;BME280;1889;50.058;8.688;2023-12-28T05:18:06;100286.22;;;11.83;69.28
3748;BME280;1889;50.058;8.688;2023-12-28T05:20:36;100289.13;;;11.92;69.08
3748;BME280;1889;50.058;8.688;2023-12-28T05:23:07;100294.63;;;11.79;70.00
3748;BME280;1889;50.058;8.688;2023-12-28T05:25:37;100287.03;;;11.39;72.34
3748;BME280;1889;50.058;8.688;2023-12-28T05:28:06;100293.02;;;11.48;72.18
3748;BME280;1889;50.058;8.688;2023-12-28T05:30:35;100299.17;;;11.47;72.70
3748;BME280;1889;50.058;8.688;2023-12-28T05:33:05;100299.95;;;11.53;72.67
3748;BME280;1889;50.058;8.688;2023-12-28T05:35:35;100296.94;;;11.72;71.80
3748;BME280;1889;50.058;8.688;2023-12-28T05:38:04;100295.55;;;11.77;71.92
3748;BME280;1889;50.058;8.688;2023-12-28T05:40:33;100289.83;;;11.77;71.97
3748;BME280;1889;50.058;8.688;2023-12-28T05:43:03;100300.07;;;11.69;72.90
3748;BME280;1889;50.058;8.688;2023-12-28T05:45:32;100296.22;;;11.64;73.34
3748;BME280;1889;50.058;8.688;2023-12-28T05:48:01;100292.73;;;11.62;73.61
3748;BME280;1889;50.058;8.688;2023-12-28T05:50:31;100297.81;;;11.73;73.41
3748;BME280;1889;50.058;8.688;2023-12-28T05:53:00;100299.35;;;11.61;74.08
3748;BME280;1889;50.058;8.688;2023-12-28T05:55:30;100289.19;;;11.65;74.16
3748;BME280;1889;50.058;8.688;2023-12-28T05:58:00;100282.13;;;11.67;74.19
3748;BME280;1889;50.058;8.688;2023-12-28T06:00:29;100274.95;;;11.73;73.89
3748;BME280;1889;50.058;8.688;2023-12-28T06:02:58;100271.89;;;11.72;73.98
3748;BME280;1889;50.058;8.688;2023-12-28T06:05:28;100265.48;;;11.63;74.43
3748;BME280;1889;50.058;8.688;2023-12-28T06:07:57;100274.70;;;11.41;75.89
3748;BME280;1889;50.058;8.688;2023-12-28T06:10:26;100280.94;;;11.35;76.60
3748;BME280;1889;50.058;8.688;2023-12-28T06:12:56;100284.25;;;11.23;77.48
3748;BME280;1889;50.058;8.688;2023-12-28T06:15:25;100287.08;;;11.36;76.96
3748;BME280;1889;50.058;8.688;2023-12-28T06:17:54;100291.37;;;11.43;76.78
3748;BME280;1889;50.058;8.688;2023-12-28T06:20:24;100286.56;;;11.41;77.09
3748;BME280;1889;50.058;8.688;2023-12-28T06:22:53;100279.30;;;11.52;76.40
3748;BME280;1889;50.058;8.688;2023-12-28T06:25:22;100275.70;;;11.58;76.21
3748;BME280;1889;50.058;8.688;2023-12-28T06:27:51;100269.78;;;11.45;76.90
3748;BME280;1889;50.058;8.688;2023-12-28T06:30:21;100275.88;;;11.48;76.88
3748;BME280;1889;50.058;8.688;2023-12-28T06:32:50;100266.53;;;11.55;76.68
3748;BME280;1889;50.058;8.688;2023-12-28T06:35:19;100258.40;;;11.67;76.03
3748;BME280;1889;50.058;8.688;2023-12-28T06:37:49;100273.24;;;11.48;76.93
3748;BME280;1889;50.058;8.688;2023-12-28T06:40:18;100266.33;;;11.65;76.27
3748;BME280;1889;50.058;8.688;2023-12-28T06:42:47;100273.52;;;11.57;76.76
3748;BME280;1889;50.058;8.688;2023-12-28T06:45:17;100271.73;;;11.59;76.82
3748;BME280;1889;50.058;8.688;2023-12-28T06:47:46;100277.02;;;11.58;76.92
3748;BME280;1889;50.058;8.688;2023-12-28T06:50:15;100271.81;;;11.31;78.50
3748;BME280;1889;50.058;8.688;2023-12-28T06:52:45;100270.58;;;11.02;80.37
3748;BME280;1889;50.058;8.688;2023-12-28T06:55:14;100269.05;;;11.13;80.16
3748;BME280;1889;50.058;8.688;2023-12-28T06:57:43;100272.70;;;11.30;79.53
3748;BME280;1889;50.058;8.688;2023-12-28T07:00:13;100277.20;;;11.25;79.81
3748;BME280;1889;50.058;8.688;2023-12-28T07:02:42;100266.48;;;10.85;82.35
3748;BME280;1889;50.058;8.688;2023-12-28T07:05:12;100275.69;;;10.86;82.87
3748;BME280;1889;50.058;8.688;2023-12-28T07:07:42;100276.30;;;11.02;82.07
3748;BME280;1889;50.058;8.688;2023-12-28T07:10:11;100276.61;;;11.09;81.76
3748;BME280;1889;50.058;8.688;2023-12-28T07:12:40;100280.58;;;11.07;82.15
3748;BME280;1889;50.058;8.688;2023-12-28T07:15:10;100285.72;;;10.88;83.21
3748;BME280;1889;50.058;8.688;2023-12-28T07:17:41;100292.43;;;11.07;82.75
3748;BME280;1889;50.058;8.688;2023-12-28T07:20:10;100290.86;;;11.21;82.03
3748;BME280;1889;50.058;8.688;2023-12-28T07:22:40;100299.44;;;11.34;81.41
3748;BME280;1889;50.058;8.688;2023-12-28T07:25:09;100300.75;;;11.34;81.64
3748;BME280;1889;50.058;8.688;2023-12-28T07:27:39;100304.45;;;11.47;81.08
3748;BME280;1889;50.058;8.688;2023-12-28T07:30:09;100310.04;;;11.29;81.82
3748;BME280;1889;50.058;8.688;2023-12-28T07:32:39;100316.86;;;11.17;82.66
3748;BME280;1889;50.058;8.688;2023-12-28T07:35:08;100313.37;;;11.15;82.63
3748;BME280;1889;50.058;8.688;2023-12-28T07:37:38;100321.76;;;11.12;83.75
3748;BME280;1889;50.058;8.688;2023-12-28T07:40:07;100323.16;;;11.07;84.08
3748;BME280;1889;50.058;8.688;2023-12-28T07:42:36;100343.00;;;11.28;83.31
3748;BME280;1889;50.058;8.688;2023-12-28T07:45:06;100322.68;;;11.11;83.90
3748;BME280;1889;50.058;8.688;2023-12-28T07:47:36;100324.53;;;11.29;83.62
3748;BME280;1889;50.058;8.688;2023-12-28T07:50:05;100325.98;;;11.47;82.45
3748;BME280;1889;50.058;8.688;2023-12-28T07:52:35;100329.06;;;11.46;82.36
3748;BME280;1889;50.058;8.688;2023-12-28T07:55:05;100338.65;;;11.27;82.83
3748;BME280;1889;50.058;8.688;2023-12-28T07:57:35;100332.12;;;11.47;82.80
3748;BME280;1889;50.058;8.688;2023-12-28T08:00:05;100345.47;;;11.37;82.88
3748;BME280;1889;50.058;8.688;2023-12-28T08:02:35;100352.00;;;11.41;82.76
3748;BME280;1889;50.058;8.688;2023-12-28T08:05:05;100342.09;;;11.54;82.50
3748;BME280;1889;50.058;8.688;2023-12-28T08:07:34;100344.08;;;11.67;81.53
3748;BME280;1889;50.058;8.688;2023-12-28T08:10:04;100329.74;;;11.58;81.54
3748;BME280;1889;50.058;8.688;2023-12-28T08:12:33;100326.44;;;11.69;81.25
3748;BME280;1889;50.058;8.688;2023-12-28T08:15:03;100325.86;;;11.53;81.72
3748;BME280;1889;50.058;8.688;2023-12-28T08:17:32;100327.92;;;11.36;82.82
3748;BME280;1889;50.058;8.688;2023-12-28T08:20:02;100325.07;;;11.24;83.77
3748;BME280;1889;50.058;8.688;2023-12-28T08:22:31;100324.89;;;11.35;83.55
3748;BME280;1889;50.058;8.688;2023-12-28T08:25:01;100333.13;;;11.40;83.19
3748;BME280;1889;50.058;8.688;2023-12-28T08:27:30;100324.52;;;11.55;82.70
3748;BME280;1889;50.058;8.688;2023-12-28T08:29:59;100333.59;;;11.62;82.21
3748;BME280;1889;50.058;8.688;2023-12-28T08:32:29;100319.25;;;11.55;82.42
3748;BME280;1889;50.058;8.688;2023-12-28T08:34:58;100326.52;;;11.66;82.03
3748;BME280;1889;50.058;8.688;2023-12-28T08:37:27;100316.48;;;11.61;82.42
3748;BME280;1889;50.058;8.688;2023-12-28T08:39:57;100326.38;;;11.50;82.74
3748;BME280;1889;50.058;8.688;2023-12-28T08:42:26;100337.20;;;11.58;82.65
3748;BME280;1889;50.058;8.688;2023-12-28T08:44:55;100330.11;;;11.60;82.42
3748;BME280;1889;50.058;8.688;2023-12-28T08:47:25;100315.57;;;11.63;82.17
3748;BME280;1889;50.058;8.688;2023-12-28T08:49:54;100322.48;;;11.69;81.91
3748;BME280;1889;50.058;8.688;2023-12-28T08:52:23;100316.93;;;11.60;82.49
3748;BME280;1889;50.058;8.688;2023-12-28T08:54:53;100314.58;;;11.69;82.10
3748;BME280;1889;50.058;8.688;2023-12-28T08:57:23;100318.94;;;11.47;83.41
3748;BME280;1889;50.058;8.688;2023-12-28T08:59:52;100318.97;;;11.46;83.99
3748;BME280;1889;50.058;8.688;2023-12-28T09:02:22;100324.50;;;11.05;86.22
3748;BME280;1889;50.058;8.688;2023-12-28T09:04:51;100326.70;;;11.04;87.13
3748;BME280;1889;50.058;8.688;2023-12-28T09:07:20;100325.41;;;11.03;87.21
3748;BME280;1889;50.058;8.688;2023-12-28T09:09:50;100323.14;;;11.08;87.31
3748;BME280;1889;50.058;8.688;2023-12-28T09:12:19;100325.13;;;11.20;86.93
3748;BME280;1889;50.058;8.688;2023-12-28T09:14:48;100335.18;;;10.96;87.98
3748;BME280;1889;50.058;8.688;2023-12-28T09:17:22;100336.14;;;10.92;88.97
3748;BME280;1889;50.058;8.688;2023-12-28T09:19:52;100327.11;;;11.07;87.98
3748;BME280;1889;50.058;8.688;2023-12-28T09:22:21;100327.47;;;11.11;87.99
3748;BME280;1889;50.058;8.688;2023-12-28T09:24:51;100331.79;;;11.17;87.46
3748;BME280;1889;50.058;8.688;2023-12-28T09:27:20;100337.27;;;11.03;87.58
3748;BME280;1889;50.058;8.688;2023-12-28T09:29:50;100338.48;;;11.11;87.94
3748;BME280;1889;50.058;8.688;2023-12-28T09:32:19;100347.59;;;11.17;87.58
3748;BME280;1889;50.058;8.688;2023-12-28T09:34:48;100350.01;;;11.29;86.51
3748;BME280;1889;50.058;8.688;2023-12-28T09:37:18;100343.66;;;11.15;87.06
3748;BME280;1889;50.058;8.688;2023-12-28T09:39:47;100352.17;;;11.31;86.45
3748;BME280;1889;50.058;8.688;2023-12-28T09:42:23;100355.80;;;11.25;85.91
3748;BME280;1889;50.058;8.688;2023-12-28T09:44:49;100344.12;;;11.40;85.53
3748;BME280;1889;50.058;8.688;2023-12-28T09:47:18;100349.25;;;11.22;85.32
3748;BME280;1889;50.058;8.688;2023-12-28T09:49:48;100350.01;;;11.29;85.63
3748;BME280;1889;50.058;8.688;2023-12-28T09:52:17;100354.33;;;11.34;84.65
3748;BME280;1889;50.058;8.688;2023-12-28T09:54:47;100357.58;;;11.48;84.15
3748;BME280;1889;50.058;8.688;2023-12-28T09:57:16;100360.52;;;11.56;83.67
3748;BME280;1889;50.058;8.688;2023-12-28T09:59:46;100363.89;;;11.64;83.07
3748;BME280;1889;50.058;8.688;2023-12-28T10:02:15;100373.89;;;11.69;82.67
3748;BME280;1889;50.058;8.688;2023-12-28T10:04:45;100372.72;;;11.61;82.72
3748;BME280;1889;50.058;8.688;2023-12-28T10:07:14;100377.36;;;11.72;82.05
3748;BME280;1889;50.058;8.688;2023-12-28T10:09:43;100370.03;;;11.64;81.90
3748;BME280;1889;50.058;8.688;2023-12-28T10:12:12;100366.63;;;11.59;82.14
3748;BME280;1889;50.058;8.688;2023-12-28T10:14:43;100368.11;;;11.74;81.74
3748;BME280;1889;50.058;8.688;2023-12-28T10:17:13;100356.27;;;11.72;80.48
3748;BME280;1889;50.058;8.688;2023-12-28T10:19:42;100356.39;;;11.66;81.14
3748;BME280;1889;50.058;8.688;2023-12-28T10:22:14;100348.98;;;11.61;80.93
3748;BME280;1889;50.058;8.688;2023-12-28T10:24:43;100349.98;;;11.56;80.96
3748;BME280;1889;50.058;8.688;2023-12-28T10:27:16;100360.69;;;11.70;80.74
3748;BME280;1889;50.058;8.688;2023-12-28T10:29:46;100357.75;;;11.63;80.87
3748;BME280;1889;50.058;8.688;2023-12-28T10:32:15;100365.35;;;11.56;80.25
3748;BME280;1889;50.058;8.688;2023-12-28T10:34:44;100366.25;;;11.55;80.20
3748;BME280;1889;50.058;8.688;2023-12-28T10:37:15;100362.03;;;11.69;79.68
3748;BME280;1889;50.058;8.688;2023-12-28T10:39:47;100359.53;;;11.61;79.87
3748;BME280;1889;50.058;8.688;2023-12-28T10:42:28;100357.14;;;11.73;79.66
3748;BME280;1889;50.058;8.688;2023-12-28T10:45:05;100354.52;;;11.71;79.22
3748;BME280;1889;50.058;8.688;2023-12-28T10:47:43;100357.07;;;11.77;78.52
3748;BME280;1889;50.058;8.688;2023-12-28T10:50:08;100356.03;;;11.86;78.74
3748;BME280;1889;50.058;8.688;2023-12-28T10:52:40;100348.31;;;11.99;78.00
3748;BME280;1889;50.058;8.688;2023-12-28T10:57:59;100349.55;;;12.02;77.19
3748;BME280;1889;50.058;8.688;2023-12-28T11:00:31;100349.64;;;11.99;76.93
3748;BME280;1889;50.058;8.688;2023-12-28T11:03:03;100334.70;;;11.98;77.27
3748;BME280;1889;50.058;8.688;2023-12-28T11:05:33;100342.34;;;11.90;77.58
3748;BME280;1889;50.058;8.688;2023-12-28T11:08:03;100335.13;;;11.99;77.70
3748;BME280;1889;50.058;8.688;2023-12-28T11:10:35;100348.08;;;12.10;77.34
3748;BME280;1889;50.058;8.688;2023-12-28T11:13:05;100348.60;;;12.27;77.16
3748;BME280;1889;50.058;8.688;2023-12-28T11:15:36;100348.69;;;12.24;76.76
3748;BME280;1889;50.058;8.688;2023-12-28T11:18:07;100341.42;;;12.34;76.48
3748;BME280;1889;50.058;8.688;2023-12-28T11:20:37;100350.40;;;12.25;76.78
3748;BME280;1889;50.058;8.688;2023-12-28T11:23:07;100348.73;;;12.21;76.50
3748;BME280;1889;50.058;8.688;2023-12-28T11:25:36;100349.31;;;12.35;75.78
3748;BME280;1889;50.058;8.688;2023-12-28T11:28:10;100352.80;;;12.37;75.92
3748;BME280;1889;50.058;8.688;2023-12-28T11:30:43;100347.70;;;12.28;75.55
3748;BME280;1889;50.058;8.688;2023-12-28T11:33:15;100356.19;;;12.42;75.17
3748;BME280;1889;50.058;8.688;2023-12-28T11:35:47;100339.77;;;12.49;74.54
3748;BME280;1889;50.058;8.688;2023-12-28T11:38:17;100339.50;;;12.61;74.63
3748;BME280;1889;50.058;8.688;2023-12-28T11:40:47;100335.89;;;12.46;73.62
3748;BME280;1889;50.058;8.688;2023-12-28T11:43:21;100327.20;;;12.60;73.85
3748;BME280;1889;50.058;8.688;2023-12-28T11:45:54;100331.91;;;12.65;72.86
3748;BME280;1889;50.058;8.688;2023-12-28T11:48:26;100329.19;;;12.70;72.64
3748;BME280;1889;50.058;8.688;2023-12-28T11:50:58;100328.20;;;12.74;71.11
3748;BME280;1889;50.058;8.688;2023-12-28T11:53:28;100332.25;;;12.71;71.51
3748;BME280;1889;50.058;8.688;2023-12-28T11:56:01;100316.91;;;12.86;71.59
3748;BME280;1889;50.058;8.688;2023-12-28T11:58:36;100320.84;;;12.88;71.02
3748;BME280;1889;50.058;8.688;2023-12-28T12:01:02;100314.92;;;12.96;70.42
3748;BME280;1889;50.058;8.688;2023-12-28T12:03:32;100314.66;;;12.89;70.32
3748;BME280;1889;50.058;8.688;2023-12-28T12:06:01;100307.03;;;12.94;69.35
3748;BME280;1889;50.058;8.688;2023-12-28T12:08:31;100304.38;;;12.94;69.42
3748;BME280;1889;50.058;8.688;2023-12-28T12:11:01;100300.65;;;13.03;69.04
3748;BME280;1889;50.058;8.688;2023-12-28T12:13:31;100291.44;;;13.02;68.79
3748;BME280;1889;50.058;8.688;2023-12-28T12:16:01;100289.27;;;12.99;68.29
3748;BME280;1889;50.058;8.688;2023-12-28T12:18:33;100282.16;;;13.03;67.90
3748;BME280;1889;50.058;8.688;2023-12-28T12:21:03;100275.06;;;13.05;67.45
3748;BME280;1889;50.058;8.688;2023-12-28T12:23:34;100268.08;;;13.03;66.97
3748;BME280;1889;50.058;8.688;2023-12-28T12:26:05;100272.80;;;13.06;67.21
3748;BME280;1889;50.058;8.688;2023-12-28T12:28:34;100271.00;;;12.90;67.35
3748;BME280;1889;50.058;8.688;2023-12-28T12:31:04;100280.70;;;12.90;67.20
3748;BME280;1889;50.058;8.688;2023-12-28T12:33:33;100271.20;;;13.00;67.49
3748;BME280;1889;50.058;8.688;2023-12-28T12:36:03;100269.17;;;12.94;67.05
3748;BME280;1889;50.058;8.688;2023-12-28T12:38:34;100263.40;;;12.78;67.77
3748;BME280;1889;50.058;8.688;2023-12-28T12:41:03;100259.50;;;12.75;67.88
3748;BME280;1889;50.058;8.688;2023-12-28T12:43:33;100262.08;;;12.78;67.97
3748;BME280;1889;50.058;8.688;2023-12-28T12:46:03;100257.34;;;12.73;68.64
3748;BME280;1889;50.058;8.688;2023-12-28T12:48:32;100248.88;;;12.78;68.60
3748;BME280;1889;50.058;8.688;2023-12-28T12:51:04;100243.59;;;12.78;68.74
3748;BME280;1889;50.058;8.688;2023-12-28T12:53:35;100251.20;;;12.55;69.81
3748;BME280;1889;50.058;8.688;2023-12-28T12:56:05;100241.11;;;12.72;69.83
3748;BME280;1889;50.058;8.688;2023-12-28T12:58:35;100230.09;;;12.73;69.75
3748;BME280;1889;50.058;8.688;2023-12-28T13:01:05;100218.08;;;12.77;70.13
3748;BME280;1889;50.058;8.688;2023-12-28T13:03:36;100224.75;;;12.74;70.63
3748;BME280;1889;50.058;8.688;2023-12-28T13:06:06;100216.25;;;12.81;70.45
3748;BME280;1889;50.058;8.688;2023-12-28T13:08:36;100220.59;;;12.82;70.50
3748;BME280;1889;50.058;8.688;2023-12-28T13:11:05;100215.28;;;12.83;70.93
3748;BME280;1889;50.058;8.688;2023-12-28T13:13:37;100223.61;;;13.02;70.67
3748;BME280;1889;50.058;8.688;2023-12-28T13:16:07;100223.00;;;12.91;71.17
3748;BME280;1889;50.058;8.688;2023-12-28T13:18:36;100223.84;;;12.93;71.12
3748;BME280;1889;50.058;8.688;2023-12-28T13:21:05;100221.27;;;12.90;71.59
3748;BME280;1889;50.058;8.688;2023-12-28T13:23:35;100227.36;;;12.76;72.29
3748;BME280;1889;50.058;8.688;2023-12-28T13:26:04;100239.49;;;13.00;71.80
3748;BME280;1889;50.058;8.688;2023-12-28T13:28:33;100242.73;;;13.12;71.03